Time;durP1;ratioP1;P1;durP2;ratioP2;P2;SDS_P1;SDS_P2;PMS_P1;PMS_P2;Temp;Humidity;BMP_temperature;BMP_pressure;BME280_temperature;BME280_humidity;BME280_pressure;Samples;Min_cycle;Max_cycle;Signal;HPM_P1;HPM_P2
2021/03/15 00:01:00;;;;;;;29.63;5.00;;;7.20;99.90;;;;;;4969501;28;20019;-95
2021/03/15 00:03:29;;;;;;;16.23;3.42;;;7.20;99.90;;;;;;4944907;29;20031;-94
2021/03/15 00:05:57;;;;;;;15.52;3.15;;;7.20;99.90;;;;;;4962746;29;20619;-95
2021/03/15 00:08:28;;;;;;;20.95;3.88;;;7.20;99.90;;;;;;4955820;29;20038;-94
2021/03/15 00:11:33;;;;;;;18.92;3.03;;;7.20;99.90;;;;;;4948812;29;20034;-96
2021/03/15 00:14:04;;;;;;;25.30;3.28;;;7.20;99.90;;;;;;4974289;28;20065;-96
2021/03/15 00:16:37;;;;;;;26.60;3.90;;;7.20;99.90;;;;;;4960782;29;20094;-94
2021/03/15 00:19:29;;;;;;;21.65;3.13;;;7.20;99.90;;;;;;4954174;29;20028;-95
2021/03/15 00:21:58;;;;;;;18.98;4.13;;;7.20;99.90;;;;;;4956099;29;20032;-95
2021/03/15 03:58:59;;;;;;;24.02;4.18;;;6.50;99.90;;;;;;5900350;23;20018;-96
2021/03/15 04:15:31;;;;;;;30.98;4.90;;;6.40;99.90;;;;;;5584356;23;20075;-96
2021/03/15 04:57:07;;;;;;;31.08;4.53;;;6.30;99.90;;;;;;5725036;23;20033;-96
2021/03/15 06:18:06;;;;;;;28.67;3.90;;;6.20;99.90;;;;;;4996877;26;20069;-96
2021/03/15 06:20:34;;;;;;;25.13;3.65;;;6.20;99.90;;;;;;5000821;28;20023;-94
2021/03/15 08:25:09;;;;;;;21.10;3.15;;;7.30;99.90;;;;;;5854420;23;20038;-96
2021/03/15 09:04:29;;;;;;;24.30;3.47;;;7.90;99.90;;;;;;5751111;23;20047;-94
2021/03/15 10:05:15;;;;;;;14.00;3.25;;;9.70;99.90;;;;;;1376466;23;20306;-95
2021/03/15 10:07:48;;;;;;;15.68;2.42;;;9.80;99.90;;;;;;5239431;23;20048;-96
2021/03/15 10:24:13;;;;;;;11.30;2.22;;;10.10;99.90;;;;;;5071312;23;20043;-94
2021/03/15 10:26:40;;;;;;;13.75;2.60;;;10.30;99.90;;;;;;4950613;29;20023;-94
2021/03/15 10:40:59;;;;;;;13.40;2.53;;;10.60;99.90;;;;;;4966378;23;20031;-96
2021/03/15 10:49:24;;;;;;;14.60;2.58;;;10.80;99.90;;;;;;5031331;23;20046;-94
2021/03/15 10:52:43;;;;;;;14.63;2.70;;;11.10;99.90;;;;;;4991897;28;20035;-95
2021/03/15 10:55:14;;;;;;;12.90;2.05;;;11.30;99.90;;;;;;4991165;28;20081;-96
2021/03/15 10:58:09;;;;;;;14.32;2.20;;;11.50;99.50;;;;;;4985496;28;20037;-96
2021/03/15 11:00:45;;;;;;;15.13;2.50;;;11.70;99.00;;;;;;4993589;28;20086;-96
2021/03/15 11:03:26;;;;;;;13.35;3.22;;;11.70;97.90;;;;;;4963967;28;20026;-96
2021/03/15 11:06:14;;;;;;;15.40;2.35;;;11.80;97.60;;;;;;4981936;28;20019;-95
2021/03/15 11:11:23;;;;;;;10.63;2.90;;;11.60;96.30;;;;;;4955492;29;20047;-96
2021/03/15 11:13:54;;;;;;;9.43;1.85;;;11.50;96.20;;;;;;4938644;29;20079;-96
2021/03/15 11:16:21;;;;;;;;;;;11.40;96.10;;;;;;4953687;29;20505;-96
2021/03/15 11:19:05;;;;;;;16.33;3.03;;;11.30;96.40;;;;;;4969982;29;19918;-96
2021/03/15 11:21:40;;;;;;;26.67;4.20;;;11.20;96.70;;;;;;4970908;28;20047;-96
2021/03/15 11:24:07;;;;;;;10.80;3.15;;;11.10;97.20;;;;;;4963255;28;20028;-96
2021/03/15 12:33:57;;;;;;;11.82;2.08;;;11.40;94.60;;;;;;5032278;23;20046;-96
2021/03/15 12:44:09;;;;;;;11.77;2.97;;;12.70;93.60;;;;;;5385468;23;20047;-96
2021/03/15 13:03:58;;;;;;;14.45;2.22;;;14.10;89.90;;;;;;5745204;23;21043;31
2021/03/15 14:19:37;;;;;;;9.73;2.50;;;10.70;98.00;;;;;;4962717;29;20043;-95
2021/03/15 14:38:38;;;;;;;11.27;2.22;;;10.50;99.80;;;;;;5644983;23;20026;-94
2021/03/15 14:48:59;;;;;;;11.30;2.42;;;10.40;99.90;;;;;;5763427;23;20053;-96
2021/03/15 15:31:41;;;;;;;10.55;2.10;;;10.30;99.90;;;;;;5006303;23;20292;-95
2021/03/15 15:34:12;;;;;;;15.15;2.58;;;10.30;99.90;;;;;;4948884;29;20052;-96
2021/03/15 15:36:38;;;;;;;;;;;10.30;99.90;;;;;;4920154;29;20039;-95
2021/03/15 15:39:04;;;;;;;14.57;2.03;;;10.30;99.90;;;;;;4943478;29;20388;-96
2021/03/15 15:41:29;;;;;;;10.60;2.20;;;10.30;99.90;;;;;;4920225;29;20028;-95
2021/03/15 15:43:55;;;;;;;10.15;1.88;;;10.40;99.90;;;;;;4941100;29;20043;-96
2021/03/15 15:49:03;;;;;;;10.95;2.13;;;10.40;99.90;;;;;;5496614;23;20043;-94
2021/03/15 16:16:30;;;;;;;12.38;2.40;;;10.60;98.20;;;;;;5865185;23;20047;-94
2021/03/15 16:18:56;;;;;;;11.95;2.05;;;10.50;97.90;;;;;;4937305;29;20122;-93
2021/03/15 16:21:25;;;;;;;12.85;2.08;;;10.50;97.80;;;;;;4921503;29;20032;-94
2021/03/15 16:23:50;;;;;;;10.73;2.67;;;10.40;97.80;;;;;;4921285;29;20020;-94
2021/03/15 16:26:16;;;;;;;17.33;3.15;;;10.40;97.60;;;;;;4937945;29;20027;-94
2021/03/15 16:28:46;;;;;;;16.20;2.30;;;10.40;97.60;;;;;;4954204;29;20020;-96
2021/03/15 16:31:14;;;;;;;11.52;2.20;;;10.40;97.80;;;;;;4940298;29;20103;-95
2021/03/15 17:04:39;;;;;;;16.90;2.30;;;11.80;93.00;;;;;;1941655;23;21640;-93
2021/03/15 17:07:05;;;;;;;15.02;2.05;;;11.60;93.20;;;;;;4901828;29;20056;-94
2021/03/15 17:09:31;;;;;;;9.85;2.33;;;11.40;93.50;;;;;;4898668;29;20132;-95
2021/03/15 17:11:56;;;;;;;12.30;2.85;;;11.30;93.70;;;;;;4914070;29;20064;-95
2021/03/15 17:14:22;;;;;;;14.57;2.85;;;11.20;94.00;;;;;;4896795;29;20064;-95
2021/03/15 17:16:48;;;;;;;12.10;2.33;;;11.00;94.20;;;;;;4911734;29;20031;-96
2021/03/15 17:19:13;;;;;;;16.80;2.20;;;10.90;94.50;;;;;;4918568;29;20090;-94
2021/03/15 17:21:39;;;;;;;10.90;1.98;;;10.70;94.70;;;;;;4921000;29;20024;-95
2021/03/15 17:24:05;;;;;;;14.45;2.30;;;10.70;94.90;;;;;;4904075;29;20111;-94
2021/03/15 17:26:31;;;;;;;13.55;2.47;;;10.50;95.00;;;;;;4900685;29;20032;-96
2021/03/15 17:28:57;;;;;;;12.93;2.30;;;10.50;95.30;;;;;;4900490;29;20024;-94
2021/03/15 17:31:22;;;;;;;12.93;2.03;;;10.40;95.40;;;;;;4904440;29;20112;-93
2021/03/15 17:33:48;;;;;;;13.07;2.30;;;10.40;95.40;;;;;;4899377;29;20119;-94
2021/03/15 17:36:14;;;;;;;13.02;2.65;;;10.30;95.60;;;;;;4917509;29;20017;-94
2021/03/15 17:38:40;;;;;;;8.75;2.75;;;10.20;95.70;;;;;;4915480;29;20598;-95
2021/03/15 17:41:09;;;;;;;12.27;1.98;;;10.20;95.90;;;;;;4900497;29;20084;-93
2021/03/15 17:43:36;;;;;;;8.50;3.13;;;10.20;96.00;;;;;;4902666;29;20442;-95
2021/03/15 17:46:03;;;;;;;12.25;2.50;;;10.10;96.10;;;;;;4922367;29;20071;-94
2021/03/15 17:48:28;;;;;;;7.60;1.90;;;10.10;96.20;;;;;;4927170;29;20028;-94
2021/03/15 17:51:00;;;;;;;13.07;2.85;;;10.00;96.30;;;;;;4934486;29;20024;-95
2021/03/15 17:53:26;;;;;;;11.25;2.40;;;10.00;96.60;;;;;;4911098;29;20040;-96
2021/03/15 17:55:52;;;;;;;10.13;2.65;;;9.90;96.70;;;;;;4932111;29;20427;-94
2021/03/15 17:58:18;;;;;;;13.68;2.70;;;9.90;96.90;;;;;;4907519;29;20490;-94
2021/03/15 18:00:44;;;;;;;7.80;2.53;;;9.90;97.10;;;;;;4898957;29;20020;-94
2021/03/15 18:03:10;;;;;;;16.20;2.83;;;9.80;97.20;;;;;;4915325;29;20039;-96
2021/03/15 18:05:37;;;;;;;10.82;2.40;;;9.80;97.30;;;;;;4897397;29;20045;-96
2021/03/15 18:08:04;;;;;;;11.10;2.47;;;9.70;97.40;;;;;;4907657;29;20024;-94
2021/03/15 18:10:31;;;;;;;9.32;2.15;;;9.70;97.60;;;;;;4903919;29;20025;-94
2021/03/15 18:12:57;;;;;;;8.68;2.38;;;9.60;97.80;;;;;;4908449;29;20112;-95
2021/03/15 18:15:23;;;;;;;15.77;3.15;;;9.60;97.90;;;;;;4898474;29;20486;-94
2021/03/15 18:17:52;;;;;;;9.07;2.40;;;9.50;98.20;;;;;;4891162;29;20024;-95
2021/03/15 18:20:19;;;;;;;13.82;3.47;;;9.50;98.50;;;;;;4910508;29;20024;-94
2021/03/15 18:22:45;;;;;;;20.27;3.58;;;9.40;98.80;;;;;;4909840;29;20039;-95
2021/03/15 18:25:12;;;;;;;17.92;2.95;;;9.30;99.10;;;;;;4908369;29;20375;-93
2021/03/15 18:27:40;;;;;;;11.20;2.80;;;9.30;99.40;;;;;;4904554;29;20128;-94
2021/03/15 18:30:07;;;;;;;15.80;2.75;;;9.20;99.80;;;;;;4908510;29;20409;-95
2021/03/15 18:32:36;;;;;;;20.23;5.10;;;9.10;99.90;;;;;;4916339;29;20040;-95
2021/03/15 18:35:03;;;;;;;14.75;2.60;;;9.00;99.90;;;;;;4914806;29;20216;-93
2021/03/15 18:37:29;;;;;;;22.17;3.75;;;9.00;99.90;;;;;;4919461;29;20350;-96
2021/03/15 18:39:54;;;;;;;14.48;2.90;;;8.90;99.90;;;;;;4888607;29;20028;-95
2021/03/15 18:42:20;;;;;;;10.52;2.83;;;8.90;99.90;;;;;;4919130;29;20028;-94
2021/03/15 18:44:46;;;;;;;13.82;2.95;;;8.90;99.90;;;;;;4915025;29;20051;-93
2021/03/15 18:47:11;;;;;;;15.80;3.40;;;8.80;99.90;;;;;;4902269;29;20024;-91
2021/03/15 18:49:38;;;;;;;17.95;3.17;;;8.80;99.90;;;;;;4934522;29;20028;-95
2021/03/15 18:52:05;;;;;;;12.25;3.35;;;8.70;99.90;;;;;;4925723;29;20087;-94
2021/03/15 18:54:31;;;;;;;15.40;2.85;;;8.70;99.90;;;;;;4895187;29;20036;-93
2021/03/15 18:56:57;;;;;;;15.48;3.22;;;8.70;99.90;;;;;;4921492;29;20028;-93
2021/03/15 18:59:23;;;;;;;14.40;3.20;;;8.60;99.90;;;;;;4919858;29;20040;-94
2021/03/15 19:01:49;;;;;;;15.40;3.15;;;8.60;99.90;;;;;;4921084;29;20020;-93
2021/03/15 19:04:15;;;;;;;15.77;3.25;;;8.60;99.90;;;;;;4920674;29;20020;-92
2021/03/15 19:06:40;;;;;;;17.35;3.28;;;8.60;99.90;;;;;;4901717;29;20048;-92
2021/03/15 19:09:07;;;;;;;14.32;2.80;;;8.60;99.90;;;;;;4906168;29;20087;-92
2021/03/15 19:11:34;;;;;;;23.60;3.42;;;8.50;99.90;;;;;;4919381;29;20039;-93
2021/03/15 19:14:00;;;;;;;16.20;3.35;;;8.50;99.90;;;;;;4910105;29;20060;-94
2021/03/15 19:16:27;;;;;;;17.75;2.85;;;8.50;99.90;;;;;;4910014;29;20093;-93
2021/03/15 19:18:53;;;;;;;16.23;4.22;;;8.50;99.90;;;;;;4934415;29;20036;-91
2021/03/15 19:21:19;;;;;;;13.82;3.88;;;8.50;99.90;;;;;;4938320;29;20024;-91
2021/03/15 19:23:45;;;;;;;16.92;3.80;;;8.40;99.90;;;;;;4924382;29;20486;-92
2021/03/15 19:26:11;;;;;;;11.93;3.50;;;8.40;99.90;;;;;;4922736;29;20088;-94
2021/03/15 19:28:40;;;;;;;16.33;3.08;;;8.40;99.90;;;;;;4920520;29;20107;-93
2021/03/15 19:31:06;;;;;;;19.55;3.85;;;8.40;99.90;;;;;;4919163;29;20020;-93
2021/03/15 19:33:37;;;;;;;32.00;4.15;;;8.40;99.90;;;;;;4920510;29;20043;-93
2021/03/15 19:36:07;;;;;;;14.00;3.97;;;8.40;99.90;;;;;;4916381;29;20028;-95
2021/03/15 19:38:33;;;;;;;20.25;3.45;;;8.40;99.90;;;;;;4919644;29;20063;-94
2021/03/15 19:40:58;;;;;;;21.42;4.75;;;8.40;99.90;;;;;;4899492;29;20024;-93
2021/03/15 19:43:25;;;;;;;13.07;4.13;;;8.40;99.90;;;;;;4919316;29;20051;-93
2021/03/15 19:45:50;;;;;;;15.13;4.18;;;8.40;99.90;;;;;;4915349;29;20111;-93
2021/03/15 19:48:16;;;;;;;15.77;3.50;;;8.30;99.90;;;;;;4901439;29;20028;-94
2021/03/15 19:50:43;;;;;;;16.95;3.60;;;8.30;99.90;;;;;;4917914;29;20024;-96
2021/03/15 19:53:09;;;;;;;16.17;3.10;;;8.30;99.90;;;;;;4918139;29;20035;-94
2021/03/15 19:55:38;;;;;;;22.45;3.95;;;8.30;99.90;;;;;;4898764;29;20040;-96
2021/03/15 19:58:05;;;;;;;19.85;4.97;;;8.30;99.90;;;;;;4916368;29;20179;-95
2021/03/15 20:00:31;;;;;;;18.15;3.90;;;8.30;99.90;;;;;;4914686;29;20024;-94
2021/03/15 20:02:57;;;;;;;18.58;3.88;;;8.30;99.90;;;;;;4897754;29;20083;-94
2021/03/15 20:05:23;;;;;;;18.98;3.67;;;8.20;99.90;;;;;;4898182;29;20053;-93
2021/03/15 20:07:50;;;;;;;14.63;3.95;;;8.20;99.90;;;;;;4912528;29;20589;-95
2021/03/15 20:10:16;;;;;;;20.63;4.38;;;8.20;99.90;;;;;;4916963;29;20040;-93
2021/03/15 20:12:44;;;;;;;49.90;13.43;;;8.20;99.90;;;;;;4901687;29;20534;-94
2021/03/15 20:15:14;;;;;;;27.13;7.03;;;8.20;99.90;;;;;;4916505;29;20034;-94
2021/03/15 20:17:45;;;;;;;26.70;5.82;;;8.10;99.90;;;;;;4918271;29;20032;-95
2021/03/15 20:20:12;;;;;;;20.08;6.25;;;8.10;99.90;;;;;;4921779;29;20418;-95
2021/03/15 20:22:44;;;;;;;20.80;5.53;;;8.10;99.90;;;;;;4898308;29;20099;-94
2021/03/15 20:25:10;;;;;;;16.65;4.97;;;8.00;99.90;;;;;;4919374;29;20027;-95
2021/03/15 20:27:36;;;;;;;28.20;6.38;;;8.00;99.90;;;;;;4919005;29;20032;-95
2021/03/15 20:30:03;;;;;;;16.45;7.72;;;8.00;99.90;;;;;;4898107;29;20036;-94
2021/03/15 20:32:32;;;;;;;29.50;5.40;;;8.00;99.90;;;;;;4910314;29;20486;-95
2021/03/15 20:34:57;;;;;;;18.27;5.18;;;8.00;99.90;;;;;;4893625;29;20039;-93
2021/03/15 20:37:23;;;;;;;20.98;6.95;;;8.00;99.90;;;;;;4903284;29;20033;-94
2021/03/15 20:39:49;;;;;;;22.42;6.07;;;7.90;99.90;;;;;;4907189;29;20036;-95
2021/03/15 20:42:15;;;;;;;21.77;6.30;;;7.90;99.90;;;;;;4896536;29;20036;-96
2021/03/15 20:44:41;;;;;;;25.17;6.72;;;7.90;99.90;;;;;;4898961;29;20029;-95
2021/03/15 20:47:06;;;;;;;27.52;5.72;;;7.90;99.90;;;;;;4902439;29;20027;-95
2021/03/15 20:49:32;;;;;;;28.65;5.97;;;7.80;99.90;;;;;;4912010;29;20505;-95
2021/03/15 20:51:58;;;;;;;28.17;7.45;;;7.80;99.90;;;;;;4893469;29;20185;-95
2021/03/15 20:54:23;;;;;;;16.15;4.70;;;7.80;99.90;;;;;;4890013;29;20047;-94
2021/03/15 20:56:49;;;;;;;28.27;5.00;;;7.80;99.90;;;;;;4914961;29;20025;-94
2021/03/15 20:59:16;;;;;;;19.48;5.40;;;7.80;99.90;;;;;;4908913;29;20483;-94
2021/03/15 21:01:42;;;;;;;27.40;5.65;;;7.80;99.90;;;;;;4899798;29;20115;-95
2021/03/15 21:04:08;;;;;;;28.75;5.22;;;7.80;99.90;;;;;;4904437;29;20048;-94
2021/03/15 21:06:33;;;;;;;28.88;5.40;;;7.70;99.90;;;;;;4896686;29;20063;-95
2021/03/15 21:08:59;;;;;;;26.42;5.30;;;7.70;99.90;;;;;;4915474;29;20024;-94
2021/03/15 21:11:25;;;;;;;22.00;5.93;;;7.70;99.90;;;;;;4918295;29;20075;-94
2021/03/15 21:13:50;;;;;;;25.58;4.97;;;7.70;99.90;;;;;;4898242;29;20045;-94
2021/03/15 21:16:16;;;;;;;30.35;6.13;;;7.70;99.90;;;;;;4900748;29;20021;-95
2021/03/15 21:18:42;;;;;;;23.92;5.75;;;7.70;99.90;;;;;;4885578;29;20029;-95
2021/03/15 21:21:08;;;;;;;19.58;4.82;;;7.60;99.90;;;;;;4907676;29;20032;-95
2021/03/15 21:23:34;;;;;;;25.25;5.30;;;7.60;99.90;;;;;;4901571;29;20037;-94
2021/03/15 21:26:00;;;;;;;33.58;6.88;;;7.60;99.90;;;;;;4892648;29;20033;-95
2021/03/15 21:28:26;;;;;;;37.22;7.30;;;7.60;99.90;;;;;;4902552;29;20037;-95
2021/03/15 21:30:52;;;;;;;33.10;7.07;;;7.60;99.90;;;;;;4902886;29;20031;-95
2021/03/15 21:33:19;;;;;;;30.48;6.00;;;7.60;99.90;;;;;;4908075;29;20048;-94
2021/03/15 21:35:50;;;;;;;20.75;4.93;;;7.50;99.90;;;;;;4895036;29;20168;-95
2021/03/15 21:38:19;;;;;;;24.90;4.93;;;7.50;99.90;;;;;;4906492;29;20028;-95
2021/03/15 21:40:46;;;;;;;27.88;5.75;;;7.50;99.90;;;;;;4899697;29;20595;-95
2021/03/15 21:43:15;;;;;;;31.30;7.47;;;7.50;99.90;;;;;;4904158;29;20044;-94
2021/03/15 21:45:40;;;;;;;21.15;5.75;;;7.50;99.90;;;;;;4895186;29;20036;-95
2021/03/15 21:48:06;;;;;;;19.15;4.95;;;7.50;99.90;;;;;;4890039;29;20027;-93
2021/03/15 21:50:32;;;;;;;21.50;4.35;;;7.50;99.90;;;;;;4894944;29;20025;-95
2021/03/15 21:53:00;;;;;;;45.97;9.10;;;7.50;99.90;;;;;;4906895;29;20501;-94
2021/03/15 21:55:26;;;;;;;22.77;5.53;;;7.60;99.90;;;;;;4897293;29;20024;-95
2021/03/15 21:57:52;;;;;;;23.65;5.40;;;7.60;99.90;;;;;;4911777;29;20043;-94
2021/03/15 22:00:21;;;;;;;17.60;4.80;;;7.60;99.90;;;;;;4910786;29;20024;-96
2021/03/15 22:02:50;;;;;;;24.45;5.93;;;7.60;99.90;;;;;;4911408;29;20035;-96
2021/03/15 22:05:18;;;;;;;25.85;5.90;;;7.60;99.90;;;;;;4916782;29;20059;-93
2021/03/15 22:07:46;;;;;;;26.77;6.43;;;7.60;99.90;;;;;;4913459;29;20028;-93
2021/03/15 22:10:13;;;;;;;18.45;4.72;;;7.60;99.90;;;;;;4911439;29;20478;-93
2021/03/15 22:12:39;;;;;;;20.65;4.88;;;7.60;99.90;;;;;;4910934;29;20036;-94
2021/03/15 22:15:07;;;;;;;24.23;7.18;;;7.60;99.90;;;;;;4905705;29;20668;-94
2021/03/15 22:17:33;;;;;;;27.27;5.30;;;7.50;99.90;;;;;;4898835;29;20040;-94
2021/03/15 22:20:01;;;;;;;31.83;5.10;;;7.50;99.90;;;;;;4907731;29;20505;-94
2021/03/15 22:22:27;;;;;;;32.00;6.20;;;7.50;99.90;;;;;;4913513;29;20024;-95
2021/03/15 22:24:53;;;;;;;30.23;5.28;;;7.50;99.90;;;;;;4892477;29;20482;-94
2021/03/15 22:27:18;;;;;;;23.75;4.90;;;7.50;99.90;;;;;;4889950;29;20025;-94
2021/03/15 22:29:44;;;;;;;32.88;5.18;;;7.50;99.90;;;;;;4901608;29;20041;-94
2021/03/15 22:32:10;;;;;;;27.08;5.35;;;7.50;99.90;;;;;;4917604;29;20021;-95
2021/03/15 22:34:36;;;;;;;21.08;4.55;;;7.50;99.90;;;;;;4905821;29;20102;-96
2021/03/15 22:37:02;;;;;;;17.75;4.82;;;7.50;99.90;;;;;;4896342;29;20039;-94
2021/03/15 22:39:27;;;;;;;22.85;4.82;;;7.50;99.90;;;;;;4906842;29;20031;-95
2021/03/15 22:41:53;;;;;;;26.70;5.70;;;7.50;99.90;;;;;;4910328;29;20032;-94
2021/03/15 22:44:20;;;;;;;23.85;4.65;;;7.50;99.90;;;;;;4910577;29;20028;-93
2021/03/15 22:46:45;;;;;;;24.42;5.57;;;7.50;99.90;;;;;;4898810;29;20395;-95
2021/03/15 22:49:11;;;;;;;22.52;5.55;;;7.50;99.90;;;;;;4918492;29;20024;-95
2021/03/15 22:51:37;;;;;;;27.75;5.22;;;7.50;99.90;;;;;;4921669;29;20039;-94
2021/03/15 22:54:02;;;;;;;27.85;5.65;;;7.50;99.90;;;;;;4918533;29;20127;-93
2021/03/15 22:56:33;;;;;;;26.35;5.03;;;7.50;99.90;;;;;;4906128;29;20028;-95
2021/03/15 22:59:02;;;;;;;;;;;7.50;99.90;;;;;;4923147;29;20052;-94
2021/03/15 23:01:38;;;;;;;24.23;5.55;;;7.50;99.90;;;;;;4903343;29;19930;-95
2021/03/15 23:04:06;;;;;;;22.83;5.22;;;7.50;99.90;;;;;;4920150;29;20127;-94
2021/03/15 23:06:34;;;;;;;25.50;6.90;;;7.50;99.90;;;;;;4926957;29;20044;-95
2021/03/15 23:09:00;;;;;;;31.52;7.20;;;7.50;99.90;;;;;;4909925;29;20546;-95
2021/03/15 23:11:27;;;;;;;37.05;7.65;;;7.40;99.90;;;;;;4914181;29;20032;-95
2021/03/15 23:13:53;;;;;;;36.50;6.70;;;7.40;99.90;;;;;;4914136;29;20051;-95
2021/03/15 23:16:19;;;;;;;27.35;8.05;;;7.40;99.90;;;;;;4925672;29;20085;-94
2021/03/15 23:18:44;;;;;;;37.22;6.82;;;7.40;99.90;;;;;;4923956;29;20038;-94
2021/03/15 23:21:11;;;;;;;30.55;8.48;;;7.40;99.90;;;;;;4905014;29;20033;-94
2021/03/15 23:23:38;;;;;;;33.58;7.50;;;7.40;99.90;;;;;;4922346;29;20534;-96
2021/03/15 23:26:05;;;;;;;31.73;7.28;;;7.40;99.90;;;;;;4903933;29;20080;-94
2021/03/15 23:28:49;;;;;;;26.02;7.50;;;7.40;99.90;;;;;;4908475;29;20029;-94
2021/03/15 23:31:15;;;;;;;37.33;10.35;;;7.30;99.90;;;;;;4915975;29;20025;-95
2021/03/15 23:33:42;;;;;;;29.50;6.88;;;7.30;99.90;;;;;;4908844;29;20040;-96
2021/03/15 23:36:08;;;;;;;33.35;8.43;;;7.30;99.90;;;;;;4908852;29;20036;-95
2021/03/15 23:38:34;;;;;;;33.35;8.55;;;7.30;99.90;;;;;;4924446;29;20344;-96
2021/03/15 23:40:59;;;;;;;34.17;8.50;;;7.30;99.90;;;;;;4923261;29;20080;-95
2021/03/15 23:43:25;;;;;;;46.42;11.57;;;7.30;99.90;;;;;;4928423;29;20048;-94
2021/03/15 23:45:51;;;;;;;35.55;9.30;;;7.30;99.90;;;;;;4917281;29;20029;-95
2021/03/15 23:48:16;;;;;;;39.42;8.68;;;7.30;99.90;;;;;;4920051;29;20047;-93
2021/03/15 23:50:42;;;;;;;36.10;8.75;;;7.30;99.90;;;;;;4916446;29;20093;-94
2021/03/15 23:53:08;;;;;;;40.33;9.38;;;7.30;99.90;;;;;;4918993;29;20505;-93
2021/03/15 23:55:33;;;;;;;34.30;8.38;;;7.30;99.90;;;;;;4916890;29;20081;-95
2021/03/15 23:57:59;;;;;;;30.90;8.60;;;7.30;99.90;;;;;;4916150;29;20045;-95
